CheckWX is a tool to help pilots better visualize weather data.  It is not intended as a substitute for an official pre-flight weather briefing.

19:43:58 UTC

CYXS TAF
Prince George Airport
Prince George, Canada
TAF CYXS 211838Z 2119/2207 18017G27KT P6SM SKC FM212200 20012G22KT P6SM SCT100 TEMPO 2122/2201 BKN080 FM220100 19012G22KT P6SM BKN080 TEMPO 2201/2207 P6SM -SHRA OVC040 RMK FCST BASED ON AUTO OBS. NXT FCST BY 220100Z

Sep-21@
19:00 UTC

Sep-21 @ 19:00 UTC

Sep-21@
22:00 UTC

Sep-21 @ 22:00 UTC

TAF CYXS 211838Z 2119/2207 18017G27KT P6SM SKC
Wind
  • 180° at 17 KTS
  • {Gusting to 27 KTS
Cloud Levels
  • Clear skies

Sep-21@
22:00 UTC

Sep-21 @ 22:00 UTC

Sep-22@
01:00 UTC

Sep-22 @ 01:00 UTC

FM212200 20012G22KT P6SM SCT100

From

From Standard forecast or significant change

Wind
  • 200° at 12 KTS
  • {Gusting to 22 KTS
Cloud Levels
  • Scattered at 10,000' AGL

Sep-21@
22:00 UTC

Sep-21 @ 22:00 UTC

Sep-22@
01:00 UTC

Sep-22 @ 01:00 UTC

TEMPO 2122/2201 BKN080

Temporary

Temporary Changes expected for less than half the time period

Cloud Levels
  • Broken at 8,000' AGL

Sep-22@
01:00 UTC

Sep-22 @ 01:00 UTC

Sep-22@
07:00 UTC

Sep-22 @ 07:00 UTC

TEMPO 2201/2207 P6SM -SHRA OVC040 RMK FCST BASED ON AUTO OBS. NXT FCST BY 220100Z

Temporary

Temporary Changes expected for less than half the time period

Conditions
Light Rain
Cloud Levels
  • Overcast at 4,000' AGL

Sep-22@
01:00 UTC

Sep-22 @ 01:00 UTC

Sep-22@
07:00 UTC

Sep-22 @ 07:00 UTC

FM220100 19012G22KT P6SM BKN080

From

From Standard forecast or significant change

Wind
  • 190° at 12 KTS
  • {Gusting to 22 KTS
Cloud Levels
  • Broken at 8,000' AGL